sensor_id;sensor_type;location;lat;lon;timestamp;temperature;humidity
8856;DHT22;4464;50.882;4.730;2024-03-23T00:53:18;7.30;99.90
8856;DHT22;4464;50.882;4.730;2024-03-23T00:55:44;7.20;99.90
8856;DHT22;4464;50.882;4.730;2024-03-23T00:58:10;7.20;99.90
8856;DHT22;4464;50.882;4.730;2024-03-23T01:00:36;7.10;99.90
8856;DHT22;4464;50.882;4.730;2024-03-23T01:03:02;7.10;99.90
8856;DHT22;4464;50.882;4.730;2024-03-23T01:05:28;7.10;99.90
8856;DHT22;4464;50.882;4.730;2024-03-23T01:08:00;7.10;99.90
8856;DHT22;4464;50.882;4.730;2024-03-23T01:10:26;7.10;99.90
8856;DHT22;4464;50.882;4.730;2024-03-23T01:12:52;7.20;99.90
8856;DHT22;4464;50.882;4.730;2024-03-23T01:15:18;7.20;99.90
8856;DHT22;4464;50.882;4.730;2024-03-23T01:17:44;7.30;99.90
8856;DHT22;4464;50.882;4.730;2024-03-23T01:20:10;7.20;99.90
8856;DHT22;4464;50.882;4.730;2024-03-23T01:22:38;7.10;99.90
8856;DHT22;4464;50.882;4.730;2024-03-23T01:25:07;7.10;99.90
8856;DHT22;4464;50.882;4.730;2024-03-23T01:27:36;7.10;99.90
8856;DHT22;4464;50.882;4.730;2024-03-23T01:30:05;7.20;99.90
8856;DHT22;4464;50.882;4.730;2024-03-23T01:32:32;7.20;99.90
8856;DHT22;4464;50.882;4.730;2024-03-23T01:34:58;7.20;99.90
8856;DHT22;4464;50.882;4.730;2024-03-23T01:37:26;7.10;99.90
8856;DHT22;4464;50.882;4.730;2024-03-23T01:39:52;7.20;99.90
8856;DHT22;4464;50.882;4.730;2024-03-23T01:42:18;7.20;99.90
8856;DHT22;4464;50.882;4.730;2024-03-23T01:44:44;7.20;99.90
8856;DHT22;4464;50.882;4.730;2024-03-23T01:47:10;7.20;99.90
8856;DHT22;4464;50.882;4.730;2024-03-23T01:49:36;7.20;99.90
8856;DHT22;4464;50.882;4.730;2024-03-23T01:52:02;7.30;99.90
8856;DHT22;4464;50.882;4.730;2024-03-23T01:54:29;7.30;99.90
8856;DHT22;4464;50.882;4.730;2024-03-23T01:56:56;7.30;99.90
8856;DHT22;4464;50.882;4.730;2024-03-23T01:59:22;7.30;99.90
8856;DHT22;4464;50.882;4.730;2024-03-23T02:01:52;7.30;99.90
8856;DHT22;4464;50.882;4.730;2024-03-23T02:04:19;7.30;99.90
8856;DHT22;4464;50.882;4.730;2024-03-23T02:06:51;7.30;99.90
8856;DHT22;4464;50.882;4.730;2024-03-23T02:09:19;7.20;99.90
8856;DHT22;4464;50.882;4.730;2024-03-23T02:11:45;7.20;99.90
8856;DHT22;4464;50.882;4.730;2024-03-23T02:14:13;7.10;99.90
8856;DHT22;4464;50.882;4.730;2024-03-23T02:16:39;7.00;99.90
8856;DHT22;4464;50.882;4.730;2024-03-23T02:19:05;6.90;99.90
8856;DHT22;4464;50.882;4.730;2024-03-23T02:21:31;6.80;99.90
8856;DHT22;4464;50.882;4.730;2024-03-23T02:23:59;6.80;99.90
8856;DHT22;4464;50.882;4.730;2024-03-23T02:26:25;6.70;99.90
8856;DHT22;4464;50.882;4.730;2024-03-23T02:28:55;6.80;99.90
8856;DHT22;4464;50.882;4.730;2024-03-23T02:31:21;6.70;99.90
8856;DHT22;4464;50.882;4.730;2024-03-23T02:33:50;6.70;99.90
8856;DHT22;4464;50.882;4.730;2024-03-23T02:36:16;6.70;99.90
8856;DHT22;4464;50.882;4.730;2024-03-23T02:38:42;6.80;99.90
8856;DHT22;4464;50.882;4.730;2024-03-23T02:41:10;6.80;99.90
8856;DHT22;4464;50.882;4.730;2024-03-23T02:43:36;6.80;99.90
8856;DHT22;4464;50.882;4.730;2024-03-23T02:46:07;6.80;99.90
8856;DHT22;4464;50.882;4.730;2024-03-23T02:48:33;6.90;99.90
8856;DHT22;4464;50.882;4.730;2024-03-23T02:50:59;6.80;99.90
8856;DHT22;4464;50.882;4.730;2024-03-23T02:53:27;6.90;99.90
8856;DHT22;4464;50.882;4.730;2024-03-23T02:55:53;6.90;99.90
8856;DHT22;4464;50.882;4.730;2024-03-23T02:58:19;6.90;99.90
8856;DHT22;4464;50.882;4.730;2024-03-23T03:00:45;6.90;99.90
8856;DHT22;4464;50.882;4.730;2024-03-23T03:03:14;6.90;99.90
8856;DHT22;4464;50.882;4.730;2024-03-23T03:05:43;6.90;99.90
8856;DHT22;4464;50.882;4.730;2024-03-23T03:08:09;6.90;99.90
8856;DHT22;4464;50.882;4.730;2024-03-23T03:10:35;6.90;99.90
8856;DHT22;4464;50.882;4.730;2024-03-23T03:13:02;7.00;99.90
8856;DHT22;4464;50.882;4.730;2024-03-23T03:15:28;7.00;99.90
8856;DHT22;4464;50.882;4.730;2024-03-23T03:17:59;7.00;99.90
8856;DHT22;4464;50.882;4.730;2024-03-23T03:20:24;7.10;99.90
8856;DHT22;4464;50.882;4.730;2024-03-23T03:22:50;7.10;99.90
8856;DHT22;4464;50.882;4.730;2024-03-23T03:25:16;7.10;99.90
8856;DHT22;4464;50.882;4.730;2024-03-23T03:27:42;7.10;99.90
8856;DHT22;4464;50.882;4.730;2024-03-23T03:30:08;7.10;99.90
8856;DHT22;4464;50.882;4.730;2024-03-23T03:32:35;7.10;99.90
8856;DHT22;4464;50.882;4.730;2024-03-23T03:35:00;7.10;99.90
8856;DHT22;4464;50.882;4.730;2024-03-23T03:37:26;7.00;99.90
8856;DHT22;4464;50.882;4.730;2024-03-23T03:39:52;7.00;99.90
8856;DHT22;4464;50.882;4.730;2024-03-23T03:42:18;7.00;99.90
8856;DHT22;4464;50.882;4.730;2024-03-23T03:44:44;7.00;99.90
8856;DHT22;4464;50.882;4.730;2024-03-23T03:47:09;7.00;99.90
8856;DHT22;4464;50.882;4.730;2024-03-23T03:49:35;6.90;99.90
8856;DHT22;4464;50.882;4.730;2024-03-23T03:52:01;6.90;99.90
8856;DHT22;4464;50.882;4.730;2024-03-23T03:54:30;6.90;99.90
8856;DHT22;4464;50.882;4.730;2024-03-23T03:56:58;6.90;99.90
8856;DHT22;4464;50.882;4.730;2024-03-23T03:59:24;6.90;99.90
8856;DHT22;4464;50.882;4.730;2024-03-23T04:01:49;6.80;99.90
8856;DHT22;4464;50.882;4.730;2024-03-23T04:04:15;6.80;99.90
8856;DHT22;4464;50.882;4.730;2024-03-23T04:06:44;6.70;99.90
8856;DHT22;4464;50.882;4.730;2024-03-23T04:09:10;6.70;99.90
8856;DHT22;4464;50.882;4.730;2024-03-23T04:11:36;6.70;99.90
8856;DHT22;4464;50.882;4.730;2024-03-23T04:14:04;6.70;99.90
8856;DHT22;4464;50.882;4.730;2024-03-23T04:16:35;6.70;99.90
8856;DHT22;4464;50.882;4.730;2024-03-23T04:19:04;6.70;99.90
8856;DHT22;4464;50.882;4.730;2024-03-23T04:21:32;6.80;99.90
8856;DHT22;4464;50.882;4.730;2024-03-23T04:24:00;6.80;99.90
8856;DHT22;4464;50.882;4.730;2024-03-23T04:26:31;6.80;99.90
8856;DHT22;4464;50.882;4.730;2024-03-23T04:29:05;6.80;99.90
8856;DHT22;4464;50.882;4.730;2024-03-23T04:31:34;6.80;99.90
8856;DHT22;4464;50.882;4.730;2024-03-23T04:34:03;6.80;99.90
8856;DHT22;4464;50.882;4.730;2024-03-23T04:36:29;6.80;99.90
8856;DHT22;4464;50.882;4.730;2024-03-23T04:38:57;6.80;99.90
8856;DHT22;4464;50.882;4.730;2024-03-23T04:41:23;6.80;99.90
8856;DHT22;4464;50.882;4.730;2024-03-23T04:43:52;6.80;99.90
8856;DHT22;4464;50.882;4.730;2024-03-23T04:46:18;6.70;99.90
8856;DHT22;4464;50.882;4.730;2024-03-23T04:48:46;6.80;99.90
8856;DHT22;4464;50.882;4.730;2024-03-23T04:51:22;6.80;99.90
8856;DHT22;4464;50.882;4.730;2024-03-23T04:53:48;6.90;99.90
8856;DHT22;4464;50.882;4.730;2024-03-23T04:56:15;6.90;99.90
8856;DHT22;4464;50.882;4.730;2024-03-23T04:58:42;7.00;99.90
8856;DHT22;4464;50.882;4.730;2024-03-23T05:01:11;7.00;99.90
8856;DHT22;4464;50.882;4.730;2024-03-23T05:03:37;7.00;99.90
8856;DHT22;4464;50.882;4.730;2024-03-23T05:06:03;7.00;99.90
8856;DHT22;4464;50.882;4.730;2024-03-23T05:08:33;7.00;99.90
8856;DHT22;4464;50.882;4.730;2024-03-23T05:10:59;7.00;99.90
8856;DHT22;4464;50.882;4.730;2024-03-23T05:13:25;7.00;99.90
8856;DHT22;4464;50.882;4.730;2024-03-23T05:15:56;7.00;99.90
8856;DHT22;4464;50.882;4.730;2024-03-23T05:18:22;7.00;99.90
8856;DHT22;4464;50.882;4.730;2024-03-23T05:20:48;6.90;99.90
8856;DHT22;4464;50.882;4.730;2024-03-23T05:23:14;6.80;99.90
8856;DHT22;4464;50.882;4.730;2024-03-23T05:25:40;6.80;99.90
8856;DHT22;4464;50.882;4.730;2024-03-23T05:28:06;6.70;99.90
8856;DHT22;4464;50.882;4.730;2024-03-23T05:30:32;6.70;99.90
8856;DHT22;4464;50.882;4.730;2024-03-23T05:32:58;6.70;99.90
8856;DHT22;4464;50.882;4.730;2024-03-23T05:35:26;6.60;99.90
8856;DHT22;4464;50.882;4.730;2024-03-23T05:37:54;6.70;99.90
8856;DHT22;4464;50.882;4.730;2024-03-23T05:40:20;6.70;99.90
8856;DHT22;4464;50.882;4.730;2024-03-23T05:42:46;6.70;99.90
8856;DHT22;4464;50.882;4.730;2024-03-23T05:45:12;6.70;99.90
8856;DHT22;4464;50.882;4.730;2024-03-23T05:47:40;6.70;99.90
8856;DHT22;4464;50.882;4.730;2024-03-23T05:50:06;6.70;99.90
8856;DHT22;4464;50.882;4.730;2024-03-23T05:52:32;6.60;99.90
8856;DHT22;4464;50.882;4.730;2024-03-23T05:54:58;6.60;99.90
8856;DHT22;4464;50.882;4.730;2024-03-23T05:57:24;6.60;99.90
8856;DHT22;4464;50.882;4.730;2024-03-23T05:59:52;6.60;99.90
8856;DHT22;4464;50.882;4.730;2024-03-23T06:02:18;6.70;99.90
8856;DHT22;4464;50.882;4.730;2024-03-23T06:04:47;6.70;99.90
8856;DHT22;4464;50.882;4.730;2024-03-23T06:07:13;6.70;99.90
8856;DHT22;4464;50.882;4.730;2024-03-23T06:09:43;6.80;99.90
8856;DHT22;4464;50.882;4.730;2024-03-23T06:12:11;6.80;99.90
8856;DHT22;4464;50.882;4.730;2024-03-23T06:14:37;6.90;99.90
8856;DHT22;4464;50.882;4.730;2024-03-23T06:17:05;7.00;99.90
8856;DHT22;4464;50.882;4.730;2024-03-23T06:19:31;7.10;99.90
8856;DHT22;4464;50.882;4.730;2024-03-23T06:21:57;7.20;99.90
8856;DHT22;4464;50.882;4.730;2024-03-23T06:24:23;7.30;99.90
8856;DHT22;4464;50.882;4.730;2024-03-23T06:26:50;7.30;99.90
8856;DHT22;4464;50.882;4.730;2024-03-23T06:29:15;7.30;99.90
8856;DHT22;4464;50.882;4.730;2024-03-23T06:31:41;7.40;99.90
8856;DHT22;4464;50.882;4.730;2024-03-23T06:34:09;7.50;99.90
8856;DHT22;4464;50.882;4.730;2024-03-23T06:36:40;7.50;99.90
8856;DHT22;4464;50.882;4.730;2024-03-23T06:39:06;7.50;99.90
8856;DHT22;4464;50.882;4.730;2024-03-23T06:41:32;7.50;99.90
8856;DHT22;4464;50.882;4.730;2024-03-23T06:44:00;7.50;99.90
8856;DHT22;4464;50.882;4.730;2024-03-23T06:46:30;7.60;99.90
8856;DHT22;4464;50.882;4.730;2024-03-23T06:48:56;7.60;99.90
8856;DHT22;4464;50.882;4.730;2024-03-23T06:51:22;7.70;99.90
8856;DHT22;4464;50.882;4.730;2024-03-23T06:53:49;7.70;99.90
8856;DHT22;4464;50.882;4.730;2024-03-23T06:56:18;7.70;99.90
8856;DHT22;4464;50.882;4.730;2024-03-23T06:58:46;7.80;99.90
8856;DHT22;4464;50.882;4.730;2024-03-23T07:01:12;7.70;99.90
8856;DHT22;4464;50.882;4.730;2024-03-23T07:03:38;7.80;99.90
8856;DHT22;4464;50.882;4.730;2024-03-23T07:06:03;7.80;99.90
8856;DHT22;4464;50.882;4.730;2024-03-23T07:08:29;7.90;99.90
8856;DHT22;4464;50.882;4.730;2024-03-23T07:10:57;8.00;99.90
8856;DHT22;4464;50.882;4.730;2024-03-23T07:13:26;8.00;99.90
8856;DHT22;4464;50.882;4.730;2024-03-23T07:15:52;8.00;99.90
8856;DHT22;4464;50.882;4.730;2024-03-23T07:18:21;8.10;99.90
8856;DHT22;4464;50.882;4.730;2024-03-23T07:20:57;8.00;99.90
8856;DHT22;4464;50.882;4.730;2024-03-23T07:23:25;8.10;99.90
8856;DHT22;4464;50.882;4.730;2024-03-23T07:26:02;8.30;99.90
8856;DHT22;4464;50.882;4.730;2024-03-23T07:28:30;8.50;99.90
8856;DHT22;4464;50.882;4.730;2024-03-23T07:31:06;8.70;99.90
8856;DHT22;4464;50.882;4.730;2024-03-23T07:33:35;8.70;99.90
8856;DHT22;4464;50.882;4.730;2024-03-23T07:36:03;8.50;99.90
8856;DHT22;4464;50.882;4.730;2024-03-23T07:38:29;8.40;99.90
8856;DHT22;4464;50.882;4.730;2024-03-23T07:41:18;8.30;99.90
8856;DHT22;4464;50.882;4.730;2024-03-23T07:43:45;8.10;99.90
8856;DHT22;4464;50.882;4.730;2024-03-23T07:46:11;8.00;99.90
8856;DHT22;4464;50.882;4.730;2024-03-23T07:48:38;7.90;99.90
8856;DHT22;4464;50.882;4.730;2024-03-23T07:53:33;7.90;99.90
8856;DHT22;4464;50.882;4.730;2024-03-23T07:56:07;7.90;99.90
8856;DHT22;4464;50.882;4.730;2024-03-23T07:58:33;7.90;99.90
8856;DHT22;4464;50.882;4.730;2024-03-23T08:01:12;8.00;99.90
8856;DHT22;4464;50.882;4.730;2024-03-23T08:03:40;8.10;99.90
8856;DHT22;4464;50.882;4.730;2024-03-23T08:08:35;8.90;99.90
8856;DHT22;4464;50.882;4.730;2024-03-23T08:11:01;9.00;99.90
8856;DHT22;4464;50.882;4.730;2024-03-23T08:13:27;9.00;99.90
8856;DHT22;4464;50.882;4.730;2024-03-23T08:15:56;9.60;99.90
8856;DHT22;4464;50.882;4.730;2024-03-23T08:18:22;10.20;99.90
8856;DHT22;4464;50.882;4.730;2024-03-23T08:20:58;10.60;99.90
8856;DHT22;4464;50.882;4.730;2024-03-23T08:23:25;11.00;99.90
8856;DHT22;4464;50.882;4.730;2024-03-23T08:25:52;11.10;99.90
8856;DHT22;4464;50.882;4.730;2024-03-23T08:28:18;11.40;99.90
8856;DHT22;4464;50.882;4.730;2024-03-23T08:30:46;11.60;99.90
8856;DHT22;4464;50.882;4.730;2024-03-23T08:33:12;11.80;99.90
8856;DHT22;4464;50.882;4.730;2024-03-23T08:35:38;11.50;99.90
8856;DHT22;4464;50.882;4.730;2024-03-23T08:38:04;10.90;99.90
8856;DHT22;4464;50.882;4.730;2024-03-23T08:40:30;10.50;99.90
8856;DHT22;4464;50.882;4.730;2024-03-23T08:42:59;10.30;99.90
8856;DHT22;4464;50.882;4.730;2024-03-23T08:45:25;10.80;99.90
8856;DHT22;4464;50.882;4.730;2024-03-23T08:47:54;11.20;99.90
8856;DHT22;4464;50.882;4.730;2024-03-23T08:50:20;11.00;99.90
8856;DHT22;4464;50.882;4.730;2024-03-23T08:52:47;11.10;99.90
8856;DHT22;4464;50.882;4.730;2024-03-23T08:55:15;11.00;99.90
8856;DHT22;4464;50.882;4.730;2024-03-23T08:57:43;10.70;99.90
8856;DHT22;4464;50.882;4.730;2024-03-23T09:00:09;10.30;99.90
8856;DHT22;4464;50.882;4.730;2024-03-23T09:02:37;10.40;99.90
8856;DHT22;4464;50.882;4.730;2024-03-23T09:05:05;10.60;99.90
8856;DHT22;4464;50.882;4.730;2024-03-23T09:07:31;10.70;99.90
8856;DHT22;4464;50.882;4.730;2024-03-23T09:09:59;10.50;99.90
8856;DHT22;4464;50.882;4.730;2024-03-23T09:12:25;10.70;99.90
8856;DHT22;4464;50.882;4.730;2024-03-23T09:14:51;11.10;99.90
8856;DHT22;4464;50.882;4.730;2024-03-23T09:17:19;11.50;99.90
8856;DHT22;4464;50.882;4.730;2024-03-23T09:19:44;11.90;99.90
8856;DHT22;4464;50.882;4.730;2024-03-23T09:22:10;11.90;99.90
8856;DHT22;4464;50.882;4.730;2024-03-23T09:24:36;12.20;99.90
8856;DHT22;4464;50.882;4.730;2024-03-23T09:27:04;12.60;99.90
8856;DHT22;4464;50.882;4.730;2024-03-23T09:29:32;12.60;99.90
8856;DHT22;4464;50.882;4.730;2024-03-23T09:31:58;12.20;99.90
8856;DHT22;4464;50.882;4.730;2024-03-23T09:34:24;11.50;99.90
8856;DHT22;4464;50.882;4.730;2024-03-23T09:36:53;10.70;99.90
8856;DHT22;4464;50.882;4.730;2024-03-23T09:39:21;10.40;99.90
8856;DHT22;4464;50.882;4.730;2024-03-23T09:41:47;10.80;99.90
8856;DHT22;4464;50.882;4.730;2024-03-23T09:44:13;11.30;99.90
8856;DHT22;4464;50.882;4.730;2024-03-23T09:46:41;11.30;99.90
8856;DHT22;4464;50.882;4.730;2024-03-23T09:49:12;10.70;99.90
8856;DHT22;4464;50.882;4.730;2024-03-23T09:51:40;10.30;99.90
8856;DHT22;4464;50.882;4.730;2024-03-23T09:54:06;11.10;99.90
8856;DHT22;4464;50.882;4.730;2024-03-23T09:56:34;10.90;99.90
8856;DHT22;4464;50.882;4.730;2024-03-23T09:59:03;10.60;99.90
8856;DHT22;4464;50.882;4.730;2024-03-23T10:01:30;10.20;99.90
8856;DHT22;4464;50.882;4.730;2024-03-23T10:03:56;10.60;99.90
8856;DHT22;4464;50.882;4.730;2024-03-23T10:06:22;11.00;99.90
8856;DHT22;4464;50.882;4.730;2024-03-23T10:08:52;11.50;99.90
8856;DHT22;4464;50.882;4.730;2024-03-23T10:11:20;11.80;99.90
8856;DHT22;4464;50.882;4.730;2024-03-23T10:13:49;11.70;99.90
8856;DHT22;4464;50.882;4.730;2024-03-23T10:16:23;12.00;99.90
8856;DHT22;4464;50.882;4.730;2024-03-23T10:18:49;12.90;99.90
8856;DHT22;4464;50.882;4.730;2024-03-23T10:21:16;12.90;98.80
8856;DHT22;4464;50.882;4.730;2024-03-23T10:23:44;12.50;99.30
8856;DHT22;4464;50.882;4.730;2024-03-23T10:26:17;12.50;98.70
8856;DHT22;4464;50.882;4.730;2024-03-23T10:29:00;13.30;97.60
8856;DHT22;4464;50.882;4.730;2024-03-23T10:31:37;12.70;97.00
8856;DHT22;4464;50.882;4.730;2024-03-23T10:34:06;12.60;96.80
8856;DHT22;4464;50.882;4.730;2024-03-23T10:36:34;12.10;96.30
8856;DHT22;4464;50.882;4.730;2024-03-23T10:39:08;11.50;97.40
8856;DHT22;4464;50.882;4.730;2024-03-23T10:41:36;10.90;98.20
8856;DHT22;4464;50.882;4.730;2024-03-23T10:44:04;11.60;99.80
8856;DHT22;4464;50.882;4.730;2024-03-23T10:46:31;13.70;97.70
8856;DHT22;4464;50.882;4.730;2024-03-23T10:48:59;15.10;94.80
8856;DHT22;4464;50.882;4.730;2024-03-23T10:51:25;15.90;93.90
8856;DHT22;4464;50.882;4.730;2024-03-23T10:53:55;15.20;92.30
8856;DHT22;4464;50.882;4.730;2024-03-23T10:56:22;13.60;92.50
8856;DHT22;4464;50.882;4.730;2024-03-23T10:58:49;12.50;93.70
8856;DHT22;4464;50.882;4.730;2024-03-23T11:01:15;12.10;94.80
8856;DHT22;4464;50.882;4.730;2024-03-23T11:03:45;11.80;96.10
8856;DHT22;4464;50.882;4.730;2024-03-23T11:09:02;13.30;95.60
8856;DHT22;4464;50.882;4.730;2024-03-23T11:11:30;13.90;94.10
8856;DHT22;4464;50.882;4.730;2024-03-23T11:14:00;13.40;93.60
8856;DHT22;4464;50.882;4.730;2024-03-23T11:16:29;14.20;94.10
8856;DHT22;4464;50.882;4.730;2024-03-23T11:22:04;14.80;91.00
8856;DHT22;4464;50.882;4.730;2024-03-23T11:24:31;14.00;90.70
8856;DHT22;4464;50.882;4.730;2024-03-23T11:26:57;13.20;92.00
8856;DHT22;4464;50.882;4.730;2024-03-23T11:29:29;12.60;93.40
8856;DHT22;4464;50.882;4.730;2024-03-23T11:31:58;14.00;93.00
8856;DHT22;4464;50.882;4.730;2024-03-23T11:34:24;15.20;91.80
8856;DHT22;4464;50.882;4.730;2024-03-23T11:36:53;16.60;90.10
8856;DHT22;4464;50.882;4.730;2024-03-23T11:39:32;15.60;87.00
8856;DHT22;4464;50.882;4.730;2024-03-23T11:41:58;15.40;89.80
8856;DHT22;4464;50.882;4.730;2024-03-23T11:44:29;15.80;88.30
8856;DHT22;4464;50.882;4.730;2024-03-23T11:47:09;16.80;86.10
8856;DHT22;4464;50.882;4.730;2024-03-23T11:49:36;18.40;84.30
8856;DHT22;4464;50.882;4.730;2024-03-23T11:52:06;17.40;82.20
8856;DHT22;4464;50.882;4.730;2024-03-23T11:54:35;17.20;82.50
8856;DHT22;4464;50.882;4.730;2024-03-23T11:57:04;16.90;82.90
8856;DHT22;4464;50.882;4.730;2024-03-23T11:59:38;16.00;82.40
8856;DHT22;4464;50.882;4.730;2024-03-23T12:04:36;15.10;86.20
8856;DHT22;4464;50.882;4.730;2024-03-23T12:07:12;15.80;83.30
8856;DHT22;4464;50.882;4.730;2024-03-23T12:09:39;16.60;83.30
8856;DHT22;4464;50.882;4.730;2024-03-23T12:12:11;16.50;80.10
8856;DHT22;4464;50.882;4.730;2024-03-23T12:14:38;16.20;81.20
8856;DHT22;4464;50.882;4.730;2024-03-23T12:17:14;15.30;81.40
8856;DHT22;4464;50.882;4.730;2024-03-23T12:19:41;14.80;81.90
8856;DHT22;4464;50.882;4.730;2024-03-23T12:22:09;15.40;81.50
8856;DHT22;4464;50.882;4.730;2024-03-23T12:24:35;16.30;81.70
8856;DHT22;4464;50.882;4.730;2024-03-23T12:27:02;17.50;80.10
8856;DHT22;4464;50.882;4.730;2024-03-23T12:29:31;18.20;77.40
8856;DHT22;4464;50.882;4.730;2024-03-23T12:32:01;18.20;76.90
8856;DHT22;4464;50.882;4.730;2024-03-23T12:34:29;18.10;75.70
8856;DHT22;4464;50.882;4.730;2024-03-23T12:36:57;17.90;76.60
8856;DHT22;4464;50.882;4.730;2024-03-23T12:39:23;18.30;75.80
8856;DHT22;4464;50.882;4.730;2024-03-23T12:41:52;19.00;77.50
8856;DHT22;4464;50.882;4.730;2024-03-23T12:44:18;19.70;77.20
8856;DHT22;4464;50.882;4.730;2024-03-23T12:46:44;17.80;77.20
8856;DHT22;4464;50.882;4.730;2024-03-23T12:49:10;15.60;80.40
8856;DHT22;4464;50.882;4.730;2024-03-23T12:51:36;14.00;85.50
8856;DHT22;4464;50.882;4.730;2024-03-23T12:54:02;12.90;89.20
8856;DHT22;4464;50.882;4.730;2024-03-23T12:56:31;12.50;90.60
8856;DHT22;4464;50.882;4.730;2024-03-23T12:58:57;13.80;90.80
8856;DHT22;4464;50.882;4.730;2024-03-23T13:01:23;15.90;87.30
8856;DHT22;4464;50.882;4.730;2024-03-23T13:03:50;17.70;85.40
8856;DHT22;4464;50.882;4.730;2024-03-23T13:06:21;18.80;80.80
8856;DHT22;4464;50.882;4.730;2024-03-23T13:08:50;20.20;77.90
8856;DHT22;4464;50.882;4.730;2024-03-23T13:11:18;20.90;74.50
8856;DHT22;4464;50.882;4.730;2024-03-23T13:13:44;21.30;73.40
8856;DHT22;4464;50.882;4.730;2024-03-23T13:16:09;20.90;72.10
8856;DHT22;4464;50.882;4.730;2024-03-23T13:18:35;20.40;72.60
8856;DHT22;4464;50.882;4.730;2024-03-23T13:21:04;19.50;72.60
8856;DHT22;4464;50.882;4.730;2024-03-23T13:23:32;19.40;73.10
8856;DHT22;4464;50.882;4.730;2024-03-23T13:26:01;18.30;73.40
8856;DHT22;4464;50.882;4.730;2024-03-23T13:28:28;17.20;73.80
8856;DHT22;4464;50.882;4.730;2024-03-23T13:30:55;17.50;77.00
8856;DHT22;4464;50.882;4.730;2024-03-23T13:33:21;16.80;79.30
8856;DHT22;4464;50.882;4.730;2024-03-23T13:35:54;16.30;78.50
8856;DHT22;4464;50.882;4.730;2024-03-23T13:38:21;15.30;79.70
8856;DHT22;4464;50.882;4.730;2024-03-23T13:43:16;13.90;84.70
8856;DHT22;4464;50.882;4.730;2024-03-23T13:45:44;13.50;84.40
8856;DHT22;4464;50.882;4.730;2024-03-23T13:48:12;12.80;87.20
8856;DHT22;4464;50.882;4.730;2024-03-23T13:50:38;12.40;88.30
8856;DHT22;4464;50.882;4.730;2024-03-23T13:53:06;12.20;88.40
8856;DHT22;4464;50.882;4.730;2024-03-23T13:55:35;12.10;87.80
8856;DHT22;4464;50.882;4.730;2024-03-23T13:58:01;12.40;90.30
8856;DHT22;4464;50.882;4.730;2024-03-23T14:00:30;13.20;87.30
8856;DHT22;4464;50.882;4.730;2024-03-23T14:03:00;13.10;84.40
8856;DHT22;4464;50.882;4.730;2024-03-23T14:05:26;12.70;86.40
8856;DHT22;4464;50.882;4.730;2024-03-23T14:07:55;12.40;86.70
8856;DHT22;4464;50.882;4.730;2024-03-23T14:10:23;12.00;89.00
8856;DHT22;4464;50.882;4.730;2024-03-23T14:12:48;11.80;90.00
8856;DHT22;4464;50.882;4.730;2024-03-23T14:15:14;11.50;89.40
8856;DHT22;4464;50.882;4.730;2024-03-23T14:17:40;11.00;91.50
8856;DHT22;4464;50.882;4.730;2024-03-23T14:20:06;10.50;93.40
8856;DHT22;4464;50.882;4.730;2024-03-23T14:22:34;10.10;94.20
8856;DHT22;4464;50.882;4.730;2024-03-23T14:25:00;10.00;95.00
8856;DHT22;4464;50.882;4.730;2024-03-23T14:27:28;10.00;95.70
8856;DHT22;4464;50.882;4.730;2024-03-23T14:29:54;9.90;96.40
8856;DHT22;4464;50.882;4.730;2024-03-23T14:32:24;9.80;97.30
8856;DHT22;4464;50.882;4.730;2024-03-23T14:34:49;9.60;98.90
8856;DHT22;4464;50.882;4.730;2024-03-23T14:37:20;9.40;99.90
8856;DHT22;4464;50.882;4.730;2024-03-23T14:39:45;9.20;99.90
8856;DHT22;4464;50.882;4.730;2024-03-23T14:42:14;8.90;99.90
8856;DHT22;4464;50.882;4.730;2024-03-23T14:44:42;9.00;99.90
8856;DHT22;4464;50.882;4.730;2024-03-23T14:47:08;9.10;99.90
8856;DHT22;4464;50.882;4.730;2024-03-23T14:49:38;9.90;99.90
8856;DHT22;4464;50.882;4.730;2024-03-23T14:52:04;11.50;99.90
8856;DHT22;4464;50.882;4.730;2024-03-23T14:54:30;12.30;99.90
8856;DHT22;4464;50.882;4.730;2024-03-23T14:56:56;13.80;99.90
8856;DHT22;4464;50.882;4.730;2024-03-23T14:59:24;16.00;98.40
8856;DHT22;4464;50.882;4.730;2024-03-23T15:01:49;17.70;94.30
8856;DHT22;4464;50.882;4.730;2024-03-23T15:04:18;18.90;92.00
8856;DHT22;4464;50.882;4.730;2024-03-23T15:06:45;19.80;90.10
8856;DHT22;4464;50.882;4.730;2024-03-23T15:09:15;19.40;87.80
8856;DHT22;4464;50.882;4.730;2024-03-23T15:11:43;17.90;88.20
8856;DHT22;4464;50.882;4.730;2024-03-23T15:14:11;17.10;90.70
8856;DHT22;4464;50.882;4.730;2024-03-23T15:16:37;16.70;90.70
8856;DHT22;4464;50.882;4.730;2024-03-23T15:19:03;17.70;91.70
8856;DHT22;4464;50.882;4.730;2024-03-23T15:21:32;18.90;90.10
8856;DHT22;4464;50.882;4.730;2024-03-23T15:23:57;19.00;86.30
8856;DHT22;4464;50.882;4.730;2024-03-23T15:26:25;18.60;86.20
8856;DHT22;4464;50.882;4.730;2024-03-23T15:28:51;19.20;87.90
8856;DHT22;4464;50.882;4.730;2024-03-23T15:31:20;19.70;85.20
8856;DHT22;4464;50.882;4.730;2024-03-23T15:33:48;20.40;82.80
8856;DHT22;4464;50.882;4.730;2024-03-23T15:36:14;20.40;79.60
8856;DHT22;4464;50.882;4.730;2024-03-23T15:38:40;19.40;77.70
8856;DHT22;4464;50.882;4.730;2024-03-23T15:41:06;18.50;77.60
8856;DHT22;4464;50.882;4.730;2024-03-23T15:43:33;17.60;81.10
8856;DHT22;4464;50.882;4.730;2024-03-23T15:46:05;17.40;80.30
8856;DHT22;4464;50.882;4.730;2024-03-23T15:48:36;16.30;81.80
8856;DHT22;4464;50.882;4.730;2024-03-23T15:51:03;15.10;85.30
8856;DHT22;4464;50.882;4.730;2024-03-23T15:53:32;14.00;87.30
8856;DHT22;4464;50.882;4.730;2024-03-23T15:56:01;13.20;89.10
8856;DHT22;4464;50.882;4.730;2024-03-23T15:58:30;12.60;90.30
8856;DHT22;4464;50.882;4.730;2024-03-23T16:00:56;12.50;90.70
8856;DHT22;4464;50.882;4.730;2024-03-23T16:03:25;12.30;90.50
8856;DHT22;4464;50.882;4.730;2024-03-23T16:06:00;11.90;91.20
8856;DHT22;4464;50.882;4.730;2024-03-23T16:08:26;11.60;90.80
8856;DHT22;4464;50.882;4.730;2024-03-23T16:10:52;11.40;91.10
8856;DHT22;4464;50.882;4.730;2024-03-23T16:13:19;11.20;91.50
8856;DHT22;4464;50.882;4.730;2024-03-23T16:15:45;11.20;92.60
8856;DHT22;4464;50.882;4.730;2024-03-23T16:18:14;11.20;94.20
8856;DHT22;4464;50.882;4.730;2024-03-23T16:20:40;11.30;94.80
8856;DHT22;4464;50.882;4.730;2024-03-23T16:23:06;11.30;94.90
8856;DHT22;4464;50.882;4.730;2024-03-23T16:25:34;11.20;94.80
8856;DHT22;4464;50.882;4.730;2024-03-23T16:28:00;10.90;95.40
8856;DHT22;4464;50.882;4.730;2024-03-23T16:30:30;10.70;95.80
8856;DHT22;4464;50.882;4.730;2024-03-23T16:33:01;10.60;96.30
8856;DHT22;4464;50.882;4.730;2024-03-23T16:35:30;10.60;96.10
8856;DHT22;4464;50.882;4.730;2024-03-23T16:37:56;10.60;96.80
8856;DHT22;4464;50.882;4.730;2024-03-23T16:40:22;10.60;96.40
8856;DHT22;4464;50.882;4.730;2024-03-23T16:42:50;10.60;96.80
8856;DHT22;4464;50.882;4.730;2024-03-23T16:45:16;10.60;96.70
8856;DHT22;4464;50.882;4.730;2024-03-23T16:47:42;10.70;97.50
8856;DHT22;4464;50.882;4.730;2024-03-23T16:50:12;10.80;98.00
8856;DHT22;4464;50.882;4.730;2024-03-23T16:52:38;10.80;98.10
8856;DHT22;4464;50.882;4.730;2024-03-23T16:55:05;10.60;98.40
8856;DHT22;4464;50.882;4.730;2024-03-23T16:57:31;10.70;98.80
8856;DHT22;4464;50.882;4.730;2024-03-23T16:59:57;10.70;99.20
8856;DHT22;4464;50.882;4.730;2024-03-23T17:02:23;10.80;99.40
8856;DHT22;4464;50.882;4.730;2024-03-23T17:04:48;10.90;99.60
8856;DHT22;4464;50.882;4.730;2024-03-23T17:07:14;10.90;99.70
8856;DHT22;4464;50.882;4.730;2024-03-23T17:09:47;10.60;98.70
8856;DHT22;4464;50.882;4.730;2024-03-23T17:12:15;10.40;99.90
8856;DHT22;4464;50.882;4.730;2024-03-23T17:14:41;10.20;99.80
8856;DHT22;4464;50.882;4.730;2024-03-23T17:17:07;10.20;99.90
8856;DHT22;4464;50.882;4.730;2024-03-23T17:19:33;10.30;99.90